Time;durP1;ratioP1;P1;durP2;ratioP2;P2;SDS_P1;SDS_P2;PMS_P1;PMS_P2;Temp;Humidity;BMP_temperature;BMP_pressure;BME280_temperature;BME280_humidity;BME280_pressure;Samples;Min_cycle;Max_cycle;Signal;HPM_P1;HPM_P2
2024/03/27 00:00:07;;;;;;;1.35;0.22;;;;;;;;;;2079256;28;20036;-52
2024/03/27 00:01:10;;;;;;;0.60;0.22;;;;;;;;;;2078877;28;20020;-53
2024/03/27 00:02:13;;;;;;;1.25;0.30;;;;;;;;;;2079528;28;20033;-54
2024/03/27 00:03:14;;;;;;;0.40;0.20;;;;;;;;;;2076747;28;20054;-51
2024/03/27 00:04:17;;;;;;;0.95;0.40;;;;;;;;;;2080078;28;20495;-54
2024/03/27 00:05:18;;;;;;;1.27;0.50;;;;;;;;;;2081438;28;20065;-53
2024/03/27 00:06:19;;;;;;;1.58;0.55;;;;;;;;;;2080457;28;20108;-52
2024/03/27 00:07:21;;;;;;;0.93;0.40;;;;;;;;;;2080673;28;20020;-54
2024/03/27 00:08:22;;;;;;;1.15;0.40;;;;;;;;;;2077120;28;20030;-55
2024/03/27 00:09:24;;;;;;;1.73;0.82;;;;;;;;;;2081303;28;20021;-49
2024/03/27 00:10:25;;;;;;;1.80;0.82;;;;;;;;;;2080870;28;20036;-50
2024/03/27 00:11:27;;;;;;;0.90;0.30;;;;;;;;;;2078927;28;20060;-53
2024/03/27 00:12:29;;;;;;;2.10;0.40;;;;;;;;;;2077999;28;20074;-54
2024/03/27 00:13:30;;;;;;;2.90;0.60;;;;;;;;;;2080667;28;20096;-52
2024/03/27 00:14:31;;;;;;;1.58;0.50;;;;;;;;;;2080797;28;20388;-50
2024/03/27 00:15:33;;;;;;;1.88;0.57;;;;;;;;;;2077021;28;20037;-55
2024/03/27 00:16:34;;;;;;;0.95;0.30;;;;;;;;;;2078880;28;20095;-45
2024/03/27 00:17:35;;;;;;;0.95;0.43;;;;;;;;;;2080684;28;20029;-52
2024/03/27 00:18:37;;;;;;;2.38;0.32;;;;;;;;;;2076387;28;20088;-54
2024/03/27 00:19:38;;;;;;;1.17;0.43;;;;;;;;;;2079821;28;20116;-55
2024/03/27 00:20:39;;;;;;;0.68;0.20;;;;;;;;;;2075049;28;20026;-55
2024/03/27 00:21:41;;;;;;;2.60;0.38;;;;;;;;;;2076762;28;20483;-50
2024/03/27 00:22:42;;;;;;;3.20;0.20;;;;;;;;;;2081062;28;20060;-53
2024/03/27 00:23:43;;;;;;;2.72;0.60;;;;;;;;;;2080944;28;20010;-51
2024/03/27 00:24:45;;;;;;;3.53;0.30;;;;;;;;;;2079518;28;20034;-54
2024/03/27 00:25:46;;;;;;;0.93;0.20;;;;;;;;;;2080945;28;20514;-51
2024/03/27 00:26:47;;;;;;;0.98;0.30;;;;;;;;;;2079786;28;20030;-52
2024/03/27 00:27:49;;;;;;;2.10;0.35;;;;;;;;;;2080552;28;20037;-54
2024/03/27 00:28:50;;;;;;;2.90;0.40;;;;;;;;;;2081333;28;20074;-52
2024/03/27 00:29:52;;;;;;;1.75;0.43;;;;;;;;;;2080807;28;20040;-53
2024/03/27 00:30:54;;;;;;;1.02;0.30;;;;;;;;;;2081188;28;20087;-53
2024/03/27 00:31:55;;;;;;;1.25;0.32;;;;;;;;;;2081214;28;20558;-53
2024/03/27 00:32:58;;;;;;;1.50;0.20;;;;;;;;;;2080301;28;20048;-50
2024/03/27 00:33:59;;;;;;;1.83;0.50;;;;;;;;;;2080584;28;20033;-52
2024/03/27 00:35:01;;;;;;;0.88;0.40;;;;;;;;;;2080293;28;20121;-55
2024/03/27 00:36:03;;;;;;;0.82;0.30;;;;;;;;;;2080447;28;20029;-52
2024/03/27 00:37:06;;;;;;;1.95;0.40;;;;;;;;;;2081363;28;20021;-54
2024/03/27 00:38:07;;;;;;;1.13;0.40;;;;;;;;;;2080078;28;20048;-51
2024/03/27 00:39:09;;;;;;;1.45;0.22;;;;;;;;;;2080823;28;20032;-54
2024/03/27 00:40:12;;;;;;;1.13;0.20;;;;;;;;;;2079473;28;20040;-54
2024/03/27 00:41:14;;;;;;;3.67;0.30;;;;;;;;;;2080847;28;20041;-54
2024/03/27 00:42:15;;;;;;;1.65;0.47;;;;;;;;;;2078359;28;20598;-49
2024/03/27 00:43:17;;;;;;;1.98;0.43;;;;;;;;;;2080007;28;20432;-49
2024/03/27 00:44:18;;;;;;;1.38;0.30;;;;;;;;;;2080649;28;20040;-48
2024/03/27 00:45:20;;;;;;;0.47;0.15;;;;;;;;;;2080647;28;20028;-49
2024/03/27 00:46:21;;;;;;;1.75;0.30;;;;;;;;;;2080515;28;20456;-48
2024/03/27 00:47:23;;;;;;;0.73;0.20;;;;;;;;;;2076833;28;20034;-49
2024/03/27 00:48:24;;;;;;;1.55;0.20;;;;;;;;;;2081008;28;20021;-47
2024/03/27 00:49:26;;;;;;;1.25;0.40;;;;;;;;;;2080740;28;20021;-49
2024/03/27 00:50:27;;;;;;;0.43;0.25;;;;;;;;;;2080767;28;20179;-50
2024/03/27 00:51:28;;;;;;;1.33;0.40;;;;;;;;;;2080820;28;20021;-48
2024/03/27 00:52:31;;;;;;;1.52;0.38;;;;;;;;;;2080788;28;20017;-49
2024/03/27 00:53:33;;;;;;;1.77;0.30;;;;;;;;;;2076046;28;20145;-49
2024/03/27 00:54:35;;;;;;;1.83;0.30;;;;;;;;;;2080035;28;20032;-49
2024/03/27 00:55:38;;;;;;;1.25;0.30;;;;;;;;;;2080662;28;20021;-49
2024/03/27 00:56:39;;;;;;;1.70;0.40;;;;;;;;;;2080634;28;20087;-47
2024/03/27 00:57:40;;;;;;;1.40;0.30;;;;;;;;;;2080704;28;20017;-48
2024/03/27 00:58:42;;;;;;;1.77;0.50;;;;;;;;;;2077486;28;20076;-49
2024/03/27 00:59:43;;;;;;;1.67;0.50;;;;;;;;;;2075276;28;20044;-49
2024/03/27 01:00:45;;;;;;;2.70;0.50;;;;;;;;;;2080365;28;20022;-49
2024/03/27 01:01:46;;;;;;;1.65;0.50;;;;;;;;;;2080535;28;20029;-48
2024/03/27 01:02:47;;;;;;;2.60;0.75;;;;;;;;;;2076365;28;20488;-49
2024/03/27 01:03:49;;;;;;;3.30;0.70;;;;;;;;;;2080571;28;20397;-48
2024/03/27 01:04:50;;;;;;;2.75;0.60;;;;;;;;;;2079795;28;20484;-47
2024/03/27 01:05:52;;;;;;;3.63;0.45;;;;;;;;;;2077530;28;20030;-49
2024/03/27 01:06:53;;;;;;;2.45;0.77;;;;;;;;;;2079179;28;20598;-49
2024/03/27 01:07:55;;;;;;;3.30;0.80;;;;;;;;;;2079922;28;20431;-49
2024/03/27 01:08:56;;;;;;;1.50;0.55;;;;;;;;;;2079574;28;20078;-48
2024/03/27 01:09:58;;;;;;;2.38;0.70;;;;;;;;;;2080267;28;20101;-49
2024/03/27 01:10:59;;;;;;;2.75;0.82;;;;;;;;;;2080928;28;20057;-48
2024/03/27 01:12:01;;;;;;;1.42;0.80;;;;;;;;;;2078671;28;20160;-48
2024/03/27 01:13:02;;;;;;;5.53;0.85;;;;;;;;;;2078953;28;20053;-49
2024/03/27 01:14:04;;;;;;;3.40;0.70;;;;;;;;;;2080139;28;20036;-50
2024/03/27 01:15:06;;;;;;;4.72;1.20;;;;;;;;;;2079617;28;20053;-50
2024/03/27 01:16:07;;;;;;;5.50;1.00;;;;;;;;;;2079760;28;20034;-49
2024/03/27 01:17:09;;;;;;;2.15;0.70;;;;;;;;;;2076936;28;21245;-48
2024/03/27 01:18:10;;;;;;;6.15;1.10;;;;;;;;;;2080176;28;20013;-48
2024/03/27 01:19:11;;;;;;;3.55;0.60;;;;;;;;;;2079696;28;20108;-49
2024/03/27 01:20:15;;;;;;;3.78;0.90;;;;;;;;;;2079884;28;20021;-49
2024/03/27 01:21:17;;;;;;;1.58;0.60;;;;;;;;;;2076149;28;20449;-48
2024/03/27 01:22:18;;;;;;;3.53;0.90;;;;;;;;;;2079531;28;20026;-48
2024/03/27 01:23:20;;;;;;;5.90;0.68;;;;;;;;;;2080291;28;20080;-49
2024/03/27 01:24:21;;;;;;;3.42;0.93;;;;;;;;;;2079652;28;20033;-47
2024/03/27 01:25:22;;;;;;;1.90;0.63;;;;;;;;;;2078842;28;20091;-48
2024/03/27 01:26:25;;;;;;;2.88;0.65;;;;;;;;;;2079981;28;20032;-49
2024/03/27 01:27:26;;;;;;;2.35;0.68;;;;;;;;;;2079653;28;20514;-49
2024/03/27 01:28:28;;;;;;;4.28;1.00;;;;;;;;;;2073178;28;20034;-49
2024/03/27 01:29:29;;;;;;;3.65;0.80;;;;;;;;;;2080725;28;20021;-49
2024/03/27 01:30:31;;;;;;;3.80;0.90;;;;;;;;;;2080278;28;20056;-48
2024/03/27 01:31:32;;;;;;;3.03;0.90;;;;;;;;;;2076481;28;20021;-48
2024/03/27 01:32:34;;;;;;;2.47;0.70;;;;;;;;;;2077687;28;20033;-48
2024/03/27 01:33:36;;;;;;;4.18;0.85;;;;;;;;;;2079899;28;20009;-49
2024/03/27 01:34:37;;;;;;;3.60;0.65;;;;;;;;;;2079731;28;20049;-48
2024/03/27 01:35:43;;;;;;;5.38;0.55;;;;;;;;;;2080268;28;20040;-48
2024/03/27 01:36:45;;;;;;;1.92;0.70;;;;;;;;;;2077728;28;20021;-48
2024/03/27 01:37:46;;;;;;;2.50;0.75;;;;;;;;;;2079381;28;20024;-50
2024/03/27 01:38:49;;;;;;;2.70;0.50;;;;;;;;;;2079248;28;20029;-49
2024/03/27 01:39:50;;;;;;;4.97;0.75;;;;;;;;;;2079833;28;20092;-49
2024/03/27 01:40:51;;;;;;;4.07;0.90;;;;;;;;;;2080301;28;20074;-54
2024/03/27 01:41:53;;;;;;;3.67;0.85;;;;;;;;;;2079492;28;20025;-52
2024/03/27 01:42:58;;;;;;;2.85;0.82;;;;;;;;;;2080126;28;20033;-54
2024/03/27 01:43:59;;;;;;;6.03;0.70;;;;;;;;;;2078789;28;20045;-54
2024/03/27 01:45:03;;;;;;;2.33;0.70;;;;;;;;;;2080032;28;20014;-53
2024/03/27 01:46:06;;;;;;;5.70;1.15;;;;;;;;;;2078676;28;20018;-54
2024/03/27 01:47:08;;;;;;;4.95;1.00;;;;;;;;;;2080265;28;20044;-51
2024/03/27 01:48:09;;;;;;;5.28;0.90;;;;;;;;;;2080729;28;20022;-54
2024/03/27 01:49:11;;;;;;;2.28;0.60;;;;;;;;;;2078591;28;20028;-52
2024/03/27 01:50:13;;;;;;;5.35;1.15;;;;;;;;;;2079293;28;20037;-54
2024/03/27 01:51:15;;;;;;;5.05;0.90;;;;;;;;;;2076592;28;20099;-52
2024/03/27 01:52:16;;;;;;;4.68;0.60;;;;;;;;;;2077517;28;20033;-53
2024/03/27 01:53:18;;;;;;;4.68;0.52;;;;;;;;;;2078075;28;20029;-49
2024/03/27 01:54:19;;;;;;;7.63;1.08;;;;;;;;;;2080790;28;20021;-52
2024/03/27 01:55:21;;;;;;;6.03;0.90;;;;;;;;;;2078309;28;20036;-51
2024/03/27 01:56:22;;;;;;;7.25;1.00;;;;;;;;;;2079622;28;20034;-53
2024/03/27 01:57:24;;;;;;;3.72;1.20;;;;;;;;;;2085703;28;20057;-54
2024/03/27 01:58:25;;;;;;;3.67;0.90;;;;;;;;;;2079789;28;20456;-54
2024/03/27 01:59:27;;;;;;;11.25;1.42;;;;;;;;;;2079596;28;20484;-53
2024/03/27 02:00:29;;;;;;;4.57;1.10;;;;;;;;;;2078905;28;20025;-52
2024/03/27 02:01:31;;;;;;;4.45;1.10;;;;;;;;;;2080712;28;20041;-53
2024/03/27 02:02:35;;;;;;;4.22;1.10;;;;;;;;;;2080037;28;20063;-54
2024/03/27 02:03:37;;;;;;;5.28;1.27;;;;;;;;;;2072706;28;20496;-47
2024/03/27 02:04:39;;;;;;;9.20;1.73;;;;;;;;;;2080308;28;20021;-49
2024/03/27 02:05:40;;;;;;;5.55;1.05;;;;;;;;;;2079628;28;20029;-48
2024/03/27 02:06:42;;;;;;;4.18;1.30;;;;;;;;;;2072010;28;20017;-54
2024/03/27 02:07:44;;;;;;;5.05;1.30;;;;;;;;;;2073717;28;20026;-49
2024/03/27 02:08:45;;;;;;;4.78;1.00;;;;;;;;;;2079247;28;20471;-50
2024/03/27 02:09:48;;;;;;;4.93;1.13;;;;;;;;;;2080516;28;20029;-51
2024/03/27 02:10:49;;;;;;;5.68;1.15;;;;;;;;;;2080396;28;20211;-52
2024/03/27 02:11:50;;;;;;;7.00;1.15;;;;;;;;;;2079356;28;20117;-49
2024/03/27 02:12:52;;;;;;;6.72;1.17;;;;;;;;;;2077985;28;20516;-49
2024/03/27 02:13:53;;;;;;;3.08;0.80;;;;;;;;;;2079355;28;20113;-47
2024/03/27 02:14:55;;;;;;;4.95;1.20;;;;;;;;;;2079905;28;20021;-47
2024/03/27 02:16:00;;;;;;;6.72;1.42;;;;;;;;;;2080471;28;20060;-51
2024/03/27 02:17:01;;;;;;;4.25;1.02;;;;;;;;;;2077635;28;20036;-49
2024/03/27 02:18:02;;;;;;;7.50;1.10;;;;;;;;;;2077774;28;20009;-49
2024/03/27 02:19:04;;;;;;;4.60;1.05;;;;;;;;;;2076284;28;20014;-49
2024/03/27 02:20:06;;;;;;;5.85;1.20;;;;;;;;;;2079413;28;20041;-49
2024/03/27 02:21:09;;;;;;;6.18;1.45;;;;;;;;;;2079950;28;20045;-49
2024/03/27 02:22:11;;;;;;;9.25;1.60;;;;;;;;;;2079770;28;20392;-48
2024/03/27 02:23:14;;;;;;;4.47;1.20;;;;;;;;;;2080330;28;20109;-49
2024/03/27 02:24:19;;;;;;;3.08;0.95;;;;;;;;;;2078310;28;20453;-48
2024/03/27 02:25:26;;;;;;;6.88;1.10;;;;;;;;;;2078212;28;20401;-49
2024/03/27 02:26:37;;;;;;;9.68;1.40;;;;;;;;;;2076354;28;20108;-48
2024/03/27 02:27:38;;;;;;;5.90;1.13;;;;;;;;;;2078502;28;20508;-48
2024/03/27 02:28:41;;;;;;;4.47;1.08;;;;;;;;;;2079168;28;20538;-49
2024/03/27 02:29:42;;;;;;;6.85;0.95;;;;;;;;;;2080613;28;20053;-49
2024/03/27 02:30:47;;;;;;;7.05;1.50;;;;;;;;;;2079706;28;20021;-48
2024/03/27 02:31:48;;;;;;;4.13;0.93;;;;;;;;;;2077014;28;20376;-47
2024/03/27 02:32:50;;;;;;;6.03;1.27;;;;;;;;;;2077726;28;20130;-47
2024/03/27 02:33:51;;;;;;;6.32;1.13;;;;;;;;;;2078268;28;20056;-49
2024/03/27 02:34:53;;;;;;;4.25;1.38;;;;;;;;;;2078329;28;20372;-49
2024/03/27 02:35:54;;;;;;;7.00;1.30;;;;;;;;;;2079986;28;20444;-48
2024/03/27 02:36:55;;;;;;;7.50;1.27;;;;;;;;;;2078470;28;20594;-49
2024/03/27 02:37:57;;;;;;;9.35;1.60;;;;;;;;;;2079607;28;20028;-48
2024/03/27 02:38:58;;;;;;;5.18;1.08;;;;;;;;;;2080322;28;20025;-48
2024/03/27 02:39:59;;;;;;;7.30;1.25;;;;;;;;;;2080267;28;20472;-48
2024/03/27 02:41:01;;;;;;;5.43;1.17;;;;;;;;;;2079990;28;20022;-49
2024/03/27 02:42:02;;;;;;;5.50;1.33;;;;;;;;;;2080511;28;20387;-49
2024/03/27 02:43:03;;;;;;;10.73;1.20;;;;;;;;;;2080160;28;20376;-49
2024/03/27 02:44:06;;;;;;;6.68;1.17;;;;;;;;;;2079091;28;20041;-47
2024/03/27 02:45:08;;;;;;;7.32;0.80;;;;;;;;;;2079998;28;20443;-48
2024/03/27 02:46:09;;;;;;;7.05;1.55;;;;;;;;;;2077311;28;20041;-48
2024/03/27 02:47:10;;;;;;;9.85;1.58;;;;;;;;;;2077125;28;20488;-49
2024/03/27 02:48:12;;;;;;;9.77;1.42;;;;;;;;;;2079584;28;20037;-49
2024/03/27 02:49:13;;;;;;;8.77;1.30;;;;;;;;;;2074798;28;20030;-49
2024/03/27 02:50:15;;;;;;;8.13;1.42;;;;;;;;;;2078667;28;20029;-49
2024/03/27 02:51:16;;;;;;;9.70;1.50;;;;;;;;;;2079939;28;20091;-49
2024/03/27 02:52:17;;;;;;;6.10;1.33;;;;;;;;;;2080289;28;20096;-48
2024/03/27 02:53:19;;;;;;;7.55;1.45;;;;;;;;;;2079568;28;20060;-48
2024/03/27 02:54:20;;;;;;;6.57;1.08;;;;;;;;;;2079916;28;20018;-48
2024/03/27 02:55:21;;;;;;;6.25;1.30;;;;;;;;;;2079487;28;20421;-50
2024/03/27 02:56:23;;;;;;;7.68;1.52;;;;;;;;;;2079345;28;20029;-48
2024/03/27 02:57:24;;;;;;;7.05;1.67;;;;;;;;;;2080117;28;20024;-49
2024/03/27 02:58:25;;;;;;;7.15;2.03;;;;;;;;;;2079690;28;20025;-48
2024/03/27 02:59:27;;;;;;;7.38;1.45;;;;;;;;;;2079406;28;20028;-49
2024/03/27 03:00:29;;;;;;;6.82;1.55;;;;;;;;;;2073936;28;20099;-47
2024/03/27 03:01:30;;;;;;;11.07;1.77;;;;;;;;;;2079123;28;20092;-49
2024/03/27 03:02:32;;;;;;;7.93;1.15;;;;;;;;;;2077167;28;20060;-48
2024/03/27 03:03:33;;;;;;;7.75;1.50;;;;;;;;;;2079951;28;20040;-48
2024/03/27 03:04:34;;;;;;;11.20;2.00;;;;;;;;;;2079278;28;20025;-49
2024/03/27 03:05:36;;;;;;;7.35;1.85;;;;;;;;;;2079134;28;20053;-49
2024/03/27 03:06:39;;;;;;;6.72;1.50;;;;;;;;;;2079822;28;20090;-49
2024/03/27 03:07:40;;;;;;;4.63;1.70;;;;;;;;;;2074821;28;20477;-50
2024/03/27 03:08:42;;;;;;;9.88;1.48;;;;;;;;;;2080136;28;20540;-49
2024/03/27 03:09:43;;;;;;;9.70;1.63;;;;;;;;;;2079601;28;20521;-49
2024/03/27 03:10:45;;;;;;;7.80;1.27;;;;;;;;;;2080126;28;20602;-49
2024/03/27 03:11:46;;;;;;;5.97;1.05;;;;;;;;;;2079509;28;20104;-50
2024/03/27 03:12:48;;;;;;;7.93;1.38;;;;;;;;;;2077044;28;20487;-49
2024/03/27 03:13:49;;;;;;;10.48;1.35;;;;;;;;;;2079322;28;20037;-48
2024/03/27 03:14:51;;;;;;;9.57;1.77;;;;;;;;;;2078732;28;20491;-47
2024/03/27 03:15:52;;;;;;;8.93;1.85;;;;;;;;;;2079101;28;20119;-49
2024/03/27 03:16:54;;;;;;;8.93;1.60;;;;;;;;;;2079681;28;20025;-48
2024/03/27 03:17:56;;;;;;;6.63;1.45;;;;;;;;;;2079520;28;20020;-49
2024/03/27 03:18:57;;;;;;;7.07;1.25;;;;;;;;;;2080266;28;20488;-48
2024/03/27 03:19:59;;;;;;;6.72;1.63;;;;;;;;;;2079603;28;20785;-48
2024/03/27 03:21:04;;;;;;;7.93;1.65;;;;;;;;;;2078067;28;20134;-47
2024/03/27 03:22:05;;;;;;;7.10;1.67;;;;;;;;;;2079021;28;20033;-48
2024/03/27 03:23:06;;;;;;;11.32;1.90;;;;;;;;;;2079073;28;20063;-49
2024/03/27 03:24:08;;;;;;;7.75;1.80;;;;;;;;;;2080053;28;20119;-49
2024/03/27 03:25:10;;;;;;;7.47;1.80;;;;;;;;;;2078044;28;20072;-49
2024/03/27 03:26:12;;;;;;;8.07;1.48;;;;;;;;;;2078879;28;20068;-48
2024/03/27 03:27:13;;;;;;;8.40;1.75;;;;;;;;;;2074980;28;20034;-49
2024/03/27 03:28:14;;;;;;;10.00;1.52;;;;;;;;;;2079809;28;20453;-48
2024/03/27 03:29:17;;;;;;;6.32;1.30;;;;;;;;;;2079692;28;20076;-49
2024/03/27 03:30:18;;;;;;;8.77;1.67;;;;;;;;;;2077239;28;20046;-48
2024/03/27 03:31:19;;;;;;;10.90;1.58;;;;;;;;;;2074610;28;20034;-50
2024/03/27 03:32:21;;;;;;;6.80;1.40;;;;;;;;;;2079009;28;20779;-48
2024/03/27 03:33:22;;;;;;;9.95;1.67;;;;;;;;;;2078301;28;20076;-49
2024/03/27 03:34:24;;;;;;;8.35;1.15;;;;;;;;;;2079416;28;20021;-49
2024/03/27 03:35:25;;;;;;;7.50;1.25;;;;;;;;;;2078731;28;20452;-48
2024/03/27 03:36:27;;;;;;;6.22;1.42;;;;;;;;;;2078085;28;20063;-47
2024/03/27 03:37:28;;;;;;;10.40;1.52;;;;;;;;;;2079571;28;20097;-49
2024/03/27 03:38:30;;;;;;;6.22;1.27;;;;;;;;;;2080538;28;20099;-49
2024/03/27 03:39:31;;;;;;;6.53;1.20;;;;;;;;;;2080119;28;20021;-49
2024/03/27 03:40:53;;;;;;;7.43;1.75;;;;;;;;;;2075538;28;20500;-49
2024/03/27 03:41:54;;;;;;;9.10;1.15;;;;;;;;;;2083106;28;20032;-49
2024/03/27 03:42:55;;;;;;;6.93;1.40;;;;;;;;;;2080583;28;20026;-49
2024/03/27 03:43:58;;;;;;;7.03;1.52;;;;;;;;;;2080360;28;20017;-50
2024/03/27 03:45:02;;;;;;;4.82;1.77;;;;;;;;;;2079229;28;20017;-49
2024/03/27 03:46:03;;;;;;;5.25;1.25;;;;;;;;;;2078256;28;20114;-48
2024/03/27 03:47:05;;;;;;;8.25;1.65;;;;;;;;;;2081755;28;20029;-49
2024/03/27 03:48:06;;;;;;;9.45;1.33;;;;;;;;;;2080156;28;20027;-50
2024/03/27 03:49:08;;;;;;;8.02;1.60;;;;;;;;;;2079630;28;20033;-49
2024/03/27 03:50:09;;;;;;;5.78;1.27;;;;;;;;;;2080521;28;20112;-47
2024/03/27 03:51:10;;;;;;;8.07;1.30;;;;;;;;;;2080866;28;20025;-49
2024/03/27 03:52:12;;;;;;;5.38;1.38;;;;;;;;;;2080973;28;20160;-47
2024/03/27 03:53:13;;;;;;;5.50;1.40;;;;;;;;;;2080587;28;20566;-49
2024/03/27 03:54:16;;;;;;;7.45;1.13;;;;;;;;;;2081576;28;20518;-48
2024/03/27 03:55:17;;;;;;;8.45;1.40;;;;;;;;;;2080654;28;20366;-48
2024/03/27 03:56:19;;;;;;;5.07;1.27;;;;;;;;;;2081303;28;20465;-48
2024/03/27 03:57:20;;;;;;;5.15;1.40;;;;;;;;;;2081210;28;20021;-48
2024/03/27 03:58:22;;;;;;;4.68;1.20;;;;;;;;;;2080514;28;20562;-46
2024/03/27 03:59:24;;;;;;;5.93;0.90;;;;;;;;;;2079197;28;20093;-49
2024/03/27 04:00:26;;;;;;;8.95;1.42;;;;;;;;;;2086170;28;20024;-50
2024/03/27 04:01:27;;;;;;;5.07;1.38;;;;;;;;;;2079908;28;20109;-48
2024/03/27 04:02:29;;;;;;;6.07;1.20;;;;;;;;;;2081357;28;20046;-48
2024/03/27 04:03:30;;;;;;;6.25;1.20;;;;;;;;;;2080327;28;20101;-49
2024/03/27 04:04:31;;;;;;;5.75;1.20;;;;;;;;;;2081220;28;20016;-47
2024/03/27 04:05:33;;;;;;;10.25;1.77;;;;;;;;;;2081836;28;20026;-46
2024/03/27 04:06:35;;;;;;;7.78;1.20;;;;;;;;;;2080456;28;20515;-48
2024/03/27 04:07:36;;;;;;;6.93;1.55;;;;;;;;;;2081435;28;20468;-49
2024/03/27 04:08:38;;;;;;;6.95;1.27;;;;;;;;;;2081055;28;20056;-47
2024/03/27 04:09:39;;;;;;;6.72;1.55;;;;;;;;;;2079013;28;20416;-47
2024/03/27 04:10:42;;;;;;;6.55;1.08;;;;;;;;;;2080220;28;20014;-49
2024/03/27 04:11:43;;;;;;;7.93;1.30;;;;;;;;;;2078672;28;20041;-47
2024/03/27 04:12:46;;;;;;;4.78;1.23;;;;;;;;;;2079389;28;20056;-49
2024/03/27 04:13:48;;;;;;;5.57;1.55;;;;;;;;;;2081412;28;20037;-49
2024/03/27 04:14:52;;;;;;;9.20;1.30;;;;;;;;;;2081610;28;20158;-50
2024/03/27 04:15:53;;;;;;;5.28;1.02;;;;;;;;;;2078833;28;20029;-47
2024/03/27 04:16:55;;;;;;;8.73;1.42;;;;;;;;;;2078274;28;20075;-47
2024/03/27 04:17:56;;;;;;;5.75;1.10;;;;;;;;;;2080616;28;20021;-50
2024/03/27 04:18:58;;;;;;;4.90;1.17;;;;;;;;;;2080679;28;20014;-48
2024/03/27 04:20:00;;;;;;;5.70;1.17;;;;;;;;;;2081659;28;20026;-48
2024/03/27 04:21:08;;;;;;;6.00;1.20;;;;;;;;;;2081617;28;20037;-48
2024/03/27 04:22:09;;;;;;;4.10;1.10;;;;;;;;;;2080584;28;20022;-49
2024/03/27 04:23:11;;;;;;;6.43;1.02;;;;;;;;;;2080392;28;20017;-50
2024/03/27 04:24:12;;;;;;;4.43;1.00;;;;;;;;;;2081513;28;20025;-50
2024/03/27 04:25:14;;;;;;;6.15;1.00;;;;;;;;;;2079540;28;20503;-47
2024/03/27 04:26:16;;;;;;;8.63;1.40;;;;;;;;;;2080721;28;20369;-49
2024/03/27 04:27:18;;;;;;;7.50;1.13;;;;;;;;;;2079785;28;20080;-48
2024/03/27 04:28:20;;;;;;;4.40;0.88;;;;;;;;;;2080431;28;20503;-49
2024/03/27 04:29:21;;;;;;;5.57;1.40;;;;;;;;;;2074025;28;20046;-47
2024/03/27 04:30:22;;;;;;;5.97;0.70;;;;;;;;;;2080473;28;20029;-48
2024/03/27 04:31:24;;;;;;;8.30;1.23;;;;;;;;;;2081483;28;20079;-47
2024/03/27 04:32:25;;;;;;;6.57;1.13;;;;;;;;;;2081457;28;20029;-47
2024/03/27 04:33:27;;;;;;;5.22;1.02;;;;;;;;;;2079751;28;20049;-50
2024/03/27 04:34:28;;;;;;;5.18;1.00;;;;;;;;;;2080693;28;20026;-49
2024/03/27 04:35:29;;;;;;;5.10;1.00;;;;;;;;;;2080400;28;20022;-48
2024/03/27 04:36:30;;;;;;;4.75;1.05;;;;;;;;;;2078763;28;20034;-49
2024/03/27 04:37:33;;;;;;;5.80;0.95;;;;;;;;;;2078706;28;20515;-48
2024/03/27 04:38:35;;;;;;;4.50;0.98;;;;;;;;;;2076975;28;20030;-49
2024/03/27 04:39:37;;;;;;;7.10;1.15;;;;;;;;;;2080735;28;20357;-49
2024/03/27 04:40:38;;;;;;;6.97;1.27;;;;;;;;;;2080835;28;20384;-48
2024/03/27 04:41:39;;;;;;;6.15;0.90;;;;;;;;;;2081602;28;20102;-48
2024/03/27 04:42:41;;;;;;;6.70;1.17;;;;;;;;;;2079914;28;20412;-49
2024/03/27 04:43:42;;;;;;;6.63;1.20;;;;;;;;;;2080599;28;20389;-49
2024/03/27 04:44:44;;;;;;;6.68;1.27;;;;;;;;;;2080635;28;20006;-49
2024/03/27 04:45:45;;;;;;;4.10;1.00;;;;;;;;;;2081206;28;20262;-48
2024/03/27 04:46:47;;;;;;;4.88;1.10;;;;;;;;;;2076857;28;20021;-48
2024/03/27 04:47:48;;;;;;;6.60;1.30;;;;;;;;;;2080006;28;20032;-49
2024/03/27 04:48:49;;;;;;;6.05;1.30;;;;;;;;;;2079810;28;20026;-49
2024/03/27 04:49:51;;;;;;;7.00;0.90;;;;;;;;;;2081367;28;20040;-49
2024/03/27 04:50:52;;;;;;;3.28;1.10;;;;;;;;;;2080996;28;20021;-48
2024/03/27 04:51:53;;;;;;;5.57;1.38;;;;;;;;;;2079068;28;20072;-49
2024/03/27 04:52:55;;;;;;;8.60;1.17;;;;;;;;;;2080218;28;20065;-49
2024/03/27 04:53:56;;;;;;;5.38;1.30;;;;;;;;;;2080537;28;20133;-47
2024/03/27 04:54:58;;;;;;;3.20;0.90;;;;;;;;;;2074491;28;20060;-48
2024/03/27 04:55:59;;;;;;;7.40;1.27;;;;;;;;;;2079365;28;20112;-49
2024/03/27 04:57:00;;;;;;;4.45;1.10;;;;;;;;;;2080720;28;20333;-49
2024/03/27 04:58:02;;;;;;;5.75;1.23;;;;;;;;;;2080831;28;20014;-47
2024/03/27 04:59:04;;;;;;;8.13;1.65;;;;;;;;;;2080794;28;20533;-48
2024/03/27 05:00:06;;;;;;;5.88;1.20;;;;;;;;;;2080512;28;20476;-49
2024/03/27 05:01:07;;;;;;;7.95;1.35;;;;;;;;;;2080153;28;20017;-48
2024/03/27 05:02:10;;;;;;;7.55;1.27;;;;;;;;;;2080530;28;20099;-52
2024/03/27 05:03:11;;;;;;;7.30;1.50;;;;;;;;;;2080984;28;20018;-47
2024/03/27 05:04:12;;;;;;;4.47;1.00;;;;;;;;;;2081171;28;20044;-47
2024/03/27 05:05:14;;;;;;;7.85;1.63;;;;;;;;;;2081176;28;20052;-49
2024/03/27 05:06:16;;;;;;;5.75;1.08;;;;;;;;;;2078902;28;20084;-49
2024/03/27 05:07:17;;;;;;;8.05;1.92;;;;;;;;;;2079295;28;20474;-47
2024/03/27 05:08:19;;;;;;;5.38;0.95;;;;;;;;;;2077699;28;20460;-48
2024/03/27 05:09:21;;;;;;;5.88;1.27;;;;;;;;;;2080497;28;20737;-48
2024/03/27 05:10:23;;;;;;;6.80;1.55;;;;;;;;;;2080447;28;20179;-48
2024/03/27 05:11:24;;;;;;;6.70;1.52;;;;;;;;;;2081104;28;20021;-50
2024/03/27 05:12:25;;;;;;;9.65;1.23;;;;;;;;;;2080569;28;20120;-49
2024/03/27 05:13:27;;;;;;;5.70;1.20;;;;;;;;;;2079385;28;20026;-48
2024/03/27 05:14:29;;;;;;;7.13;1.20;;;;;;;;;;2080024;28;20476;-47
2024/03/27 05:15:30;;;;;;;7.25;1.33;;;;;;;;;;2080458;28;20443;-48
2024/03/27 05:16:32;;;;;;;9.20;1.63;;;;;;;;;;2076814;28;20112;-47
2024/03/27 05:17:33;;;;;;;6.75;1.08;;;;;;;;;;2076853;28;20017;-47
2024/03/27 05:18:34;;;;;;;6.30;1.10;;;;;;;;;;2081063;28;20576;-47
2024/03/27 05:19:36;;;;;;;4.32;1.10;;;;;;;;;;2079862;28;20453;-47
2024/03/27 05:20:37;;;;;;;6.65;1.35;;;;;;;;;;2080362;28;20040;-48
2024/03/27 05:21:39;;;;;;;5.95;1.42;;;;;;;;;;2080201;28;20010;-48
2024/03/27 05:22:41;;;;;;;8.98;2.10;;;;;;;;;;2079041;28;20499;-47
2024/03/27 05:23:42;;;;;;;8.32;1.40;;;;;;;;;;2081137;28;20021;-47
2024/03/27 05:24:44;;;;;;;7.50;1.30;;;;;;;;;;2080028;28;20022;-46
2024/03/27 05:25:45;;;;;;;5.63;1.40;;;;;;;;;;2081603;28;20522;-48
2024/03/27 05:26:47;;;;;;;6.05;1.52;;;;;;;;;;2081932;28;20017;-47
2024/03/27 05:27:48;;;;;;;7.60;1.35;;;;;;;;;;2082272;28;20048;-48
2024/03/27 05:28:50;;;;;;;10.77;1.65;;;;;;;;;;2082090;28;20025;-48
2024/03/27 05:29:51;;;;;;;6.43;1.13;;;;;;;;;;2076821;28;20091;-47
2024/03/27 05:30:52;;;;;;;8.15;1.00;;;;;;;;;;2077328;28;20017;-46
2024/03/27 05:31:58;;;;;;;7.40;1.85;;;;;;;;;;2081645;28;20028;-46
2024/03/27 05:33:00;;;;;;;6.10;1.20;;;;;;;;;;2075730;28;20022;-47
2024/03/27 05:34:01;;;;;;;8.93;1.77;;;;;;;;;;2079655;28;20022;-50
2024/03/27 05:35:03;;;;;;;10.30;1.98;;;;;;;;;;2082330;28;20022;-48
2024/03/27 05:36:07;;;;;;;8.65;1.23;;;;;;;;;;2082147;28;20500;-48
2024/03/27 05:37:08;;;;;;;7.80;1.92;;;;;;;;;;2080608;28;20065;-49
2024/03/27 05:38:09;;;;;;;9.02;1.75;;;;;;;;;;2080770;28;20014;-48
2024/03/27 05:39:11;;;;;;;8.15;1.45;;;;;;;;;;2080302;28;20349;-48
2024/03/27 05:40:13;;;;;;;7.25;1.23;;;;;;;;;;2081246;28;20039;-50
2024/03/27 05:41:14;;;;;;;8.45;2.35;;;;;;;;;;2081201;28;20029;-48
2024/03/27 05:42:15;;;;;;;9.32;1.45;;;;;;;;;;2080885;28;21567;-48
2024/03/27 05:43:17;;;;;;;9.13;1.95;;;;;;;;;;2079482;28;20044;-49
2024/03/27 05:44:18;;;;;;;7.10;1.48;;;;;;;;;;2080343;28;20731;-48
2024/03/27 05:45:19;;;;;;;7.40;1.77;;;;;;;;;;2080896;28;20632;-46
2024/03/27 05:46:21;;;;;;;14.48;2.38;;;;;;;;;;2076745;28;20016;-47
2024/03/27 05:47:22;;;;;;;6.70;1.60;;;;;;;;;;2081575;28;20094;-49
2024/03/27 05:48:25;;;;;;;8.38;1.50;;;;;;;;;;2080534;28;20391;-48
2024/03/27 05:49:29;;;;;;;6.93;1.38;;;;;;;;;;2080374;28;20006;-50
2024/03/27 05:50:30;;;;;;;8.45;1.75;;;;;;;;;;2081194;28;20025;-48
2024/03/27 05:51:33;;;;;;;12.88;1.50;;;;;;;;;;2077546;28;20021;-48
2024/03/27 05:52:34;;;;;;;8.10;1.40;;;;;;;;;;2080604;28;20464;-48
2024/03/27 05:53:35;;;;;;;5.82;1.67;;;;;;;;;;2080454;28;20534;-49
2024/03/27 05:54:36;;;;;;;7.80;1.50;;;;;;;;;;2079560;28;20022;-49
2024/03/27 05:55:38;;;;;;;10.75;2.35;;;;;;;;;;2077723;28;20025;-50
2024/03/27 05:56:39;;;;;;;9.88;1.83;;;;;;;;;;2075017;28;20044;-48
2024/03/27 05:57:41;;;;;;;8.38;2.17;;;;;;;;;;2074648;28;20034;-49
2024/03/27 05:58:42;;;;;;;14.32;2.28;;;;;;;;;;2078668;28;20036;-48
2024/03/27 05:59:43;;;;;;;10.95;1.98;;;;;;;;;;2075496;28;20022;-53
2024/03/27 06:00:45;;;;;;;14.48;1.98;;;;;;;;;;2073465;28;20022;-53
2024/03/27 06:01:46;;;;;;;15.02;1.77;;;;;;;;;;2073729;28;20022;-53
2024/03/27 06:02:48;;;;;;;13.40;2.08;;;;;;;;;;2080983;28;20022;-55
2024/03/27 06:03:51;;;;;;;9.55;1.73;;;;;;;;;;2076388;28;20089;-53
2024/03/27 06:04:53;;;;;;;11.23;2.05;;;;;;;;;;2075502;28;20484;-53
2024/03/27 06:05:55;;;;;;;15.55;2.40;;;;;;;;;;2076048;28;20018;-50
2024/03/27 06:06:56;;;;;;;8.35;1.70;;;;;;;;;;2080022;28;20029;-48
2024/03/27 06:07:58;;;;;;;12.52;2.28;;;;;;;;;;2080478;28;20025;-49
2024/03/27 06:08:59;;;;;;;9.30;2.17;;;;;;;;;;2078790;28;20033;-50
2024/03/27 06:10:00;;;;;;;10.65;2.28;;;;;;;;;;2072016;28;20451;-48